createdAt,value
2023-03-26T00:01:51.798Z,100.00
2023-03-26T00:04:21.637Z,100.00
2023-03-26T00:06:50.281Z,100.00
2023-03-26T00:09:18.195Z,100.00
2023-03-26T00:11:46.710Z,100.00
2023-03-26T00:14:17.710Z,100.00
2023-03-26T00:16:47.330Z,100.00
2023-03-26T00:19:15.244Z,100.00
2023-03-26T00:21:42.659Z,100.00
2023-03-26T00:24:15.280Z,100.00
2023-03-26T00:26:43.075Z,100.00
2023-03-26T00:29:13.494Z,100.00
2023-03-26T00:31:41.157Z,100.00
2023-03-26T00:34:10.555Z,100.00
2023-03-26T00:36:37.965Z,100.00
2023-03-26T00:39:05.619Z,100.00
2023-03-26T00:41:36.862Z,100.00
2023-03-26T00:44:04.553Z,100.00
2023-03-26T00:46:32.397Z,100.00
2023-03-26T00:49:01.633Z,100.00
2023-03-26T00:51:29.416Z,100.00
2023-03-26T00:53:57.581Z,100.00
2023-03-26T00:56:25.289Z,100.00
2023-03-26T00:58:52.872Z,100.00
2023-03-26T01:01:27.692Z,100.00
2023-03-26T01:06:35.872Z,100.00
2023-03-26T01:09:17.342Z,100.00
2023-03-26T01:11:45.461Z,100.00
2023-03-26T01:14:21.227Z,100.00
2023-03-26T01:16:51.917Z,100.00
2023-03-26T01:19:45.151Z,100.00
2023-03-26T01:22:20.064Z,100.00
2023-03-26T01:24:53.103Z,100.00
2023-03-26T01:27:44.775Z,100.00
2023-03-26T01:30:37.164Z,100.00
2023-03-26T01:33:33.910Z,100.00
2023-03-26T01:36:05.421Z,100.00
2023-03-26T01:38:38.709Z,100.00
2023-03-26T01:41:23.907Z,100.00
2023-03-26T01:44:12.525Z,100.00
2023-03-26T01:46:40.394Z,100.00
2023-03-26T01:49:13.294Z,100.00
2023-03-26T01:51:42.671Z,100.00
2023-03-26T01:54:17.130Z,100.00
2023-03-26T01:57:21.038Z,100.00
2023-03-26T02:00:13.513Z,100.00
2023-03-26T02:03:05.673Z,100.00
2023-03-26T02:05:50.846Z,100.00
2023-03-26T02:08:39.195Z,100.00
2023-03-26T02:11:11.740Z,100.00
2023-03-26T02:13:41.618Z,100.00
2023-03-26T02:16:19.369Z,100.00
2023-03-26T02:18:51.268Z,100.00
2023-03-26T02:21:21.416Z,100.00
2023-03-26T02:24:02.879Z,100.00
2023-03-26T02:26:35.375Z,100.00
2023-03-26T02:29:13.361Z,100.00
2023-03-26T02:31:43.417Z,100.00
2023-03-26T02:34:11.281Z,100.00
2023-03-26T02:36:43.040Z,100.00
2023-03-26T02:39:11.912Z,100.00
2023-03-26T02:41:39.773Z,100.00
2023-03-26T02:44:10.259Z,100.00
2023-03-26T02:47:03.603Z,100.00
2023-03-26T02:50:06.236Z,100.00
2023-03-26T02:52:57.119Z,100.00
2023-03-26T02:55:25.521Z,100.00
2023-03-26T02:57:55.343Z,100.00
2023-03-26T03:00:29.106Z,100.00
2023-03-26T03:03:27.760Z,100.00
2023-03-26T03:06:01.120Z,100.00
2023-03-26T03:08:41.542Z,100.00
2023-03-26T03:11:10.614Z,100.00
2023-03-26T03:13:46.631Z,100.00
2023-03-26T03:16:19.965Z,100.00
2023-03-26T03:18:54.250Z,100.00
2023-03-26T03:21:29.300Z,100.00
2023-03-26T03:23:59.672Z,100.00
2023-03-26T03:26:29.879Z,100.00
2023-03-26T03:29:00.206Z,100.00
2023-03-26T03:31:28.393Z,100.00
2023-03-26T03:34:01.211Z,100.00
2023-03-26T03:36:33.074Z,100.00
2023-03-26T03:39:07.386Z,100.00
2023-03-26T03:41:36.053Z,100.00
2023-03-26T03:44:06.181Z,100.00
2023-03-26T03:46:34.667Z,100.00
2023-03-26T03:49:02.767Z,100.00
2023-03-26T03:51:37.078Z,100.00
2023-03-26T03:54:10.428Z,100.00
2023-03-26T03:57:02.119Z,100.00
2023-03-26T03:59:47.549Z,100.00
2023-03-26T04:02:35.197Z,100.00
2023-03-26T04:05:06.338Z,100.00
2023-03-26T04:07:34.585Z,100.00
2023-03-26T04:10:21.950Z,100.00
2023-03-26T04:13:07.900Z,100.00
2023-03-26T04:15:53.124Z,100.00
2023-03-26T04:18:22.459Z,100.00
2023-03-26T04:20:50.812Z,100.00
2023-03-26T04:23:26.661Z,100.00
2023-03-26T04:26:04.614Z,100.00
2023-03-26T04:29:02.795Z,100.00
2023-03-26T04:31:31.999Z,100.00
2023-03-26T04:34:13.630Z,100.00
2023-03-26T04:36:54.649Z,100.00
2023-03-26T04:39:29.231Z,100.00
2023-03-26T04:42:15.309Z,100.00
2023-03-26T04:44:54.841Z,100.00
2023-03-26T04:47:23.511Z,100.00
2023-03-26T04:49:50.990Z,100.00
2023-03-26T04:52:18.944Z,100.00
2023-03-26T04:54:58.676Z,100.00
2023-03-26T04:57:37.908Z,100.00
2023-03-26T05:00:20.446Z,100.00
2023-03-26T05:02:56.120Z,100.00
2023-03-26T05:05:24.700Z,100.00
2023-03-26T05:07:52.488Z,100.00
2023-03-26T05:10:21.717Z,100.00
2023-03-26T05:12:53.345Z,100.00
2023-03-26T05:15:25.617Z,100.00
2023-03-26T05:18:11.791Z,100.00
2023-03-26T05:20:45.215Z,100.00
2023-03-26T05:23:13.266Z,100.00
2023-03-26T05:25:47.792Z,100.00
2023-03-26T05:28:24.296Z,100.00
2023-03-26T05:30:56.598Z,100.00
2023-03-26T05:33:26.715Z,100.00
2023-03-26T05:36:04.417Z,100.00
2023-03-26T05:38:33.576Z,100.00
2023-03-26T05:41:07.022Z,100.00
2023-03-26T05:43:36.370Z,100.00
2023-03-26T05:46:11.124Z,100.00
2023-03-26T05:48:39.241Z,100.00
2023-03-26T05:51:07.872Z,100.00
2023-03-26T05:53:35.826Z,100.00
2023-03-26T05:56:21.668Z,100.00
2023-03-26T05:59:08.045Z,100.00
2023-03-26T06:01:54.540Z,100.00
2023-03-26T06:04:42.920Z,100.00
2023-03-26T06:07:29.281Z,100.00
2023-03-26T06:10:18.346Z,100.00
2023-03-26T06:12:46.823Z,100.00
2023-03-26T06:15:14.384Z,100.00
2023-03-26T06:17:48.006Z,100.00
2023-03-26T06:20:33.426Z,100.00
2023-03-26T06:23:05.320Z,100.00
2023-03-26T06:25:53.073Z,100.00
2023-03-26T06:28:44.723Z,100.00
2023-03-26T06:31:32.118Z,100.00
2023-03-26T06:34:22.627Z,100.00
2023-03-26T06:36:52.629Z,100.00
2023-03-26T06:39:21.620Z,100.00
2023-03-26T06:42:08.899Z,100.00
2023-03-26T06:44:54.678Z,100.00
2023-03-26T06:47:40.817Z,100.00
2023-03-26T06:50:08.955Z,100.00
2023-03-26T06:52:41.874Z,100.00
2023-03-26T06:55:28.311Z,100.00
2023-03-26T06:58:28.047Z,100.00
2023-03-26T07:01:14.018Z,100.00
2023-03-26T07:04:00.592Z,100.00
2023-03-26T07:07:06.987Z,100.00
2023-03-26T07:09:53.040Z,100.00
2023-03-26T07:12:42.432Z,100.00
2023-03-26T07:15:22.062Z,100.00
2023-03-26T07:18:18.889Z,100.00
2023-03-26T07:20:47.249Z,100.00
2023-03-26T07:23:20.081Z,100.00
2023-03-26T07:25:57.978Z,100.00
2023-03-26T07:29:04.748Z,100.00
2023-03-26T07:32:22.113Z,100.00
2023-03-26T07:36:01.328Z,100.00
2023-03-26T07:39:36.417Z,100.00
2023-03-26T07:43:21.542Z,100.00
2023-03-26T07:46:33.950Z,100.00
2023-03-26T07:49:17.854Z,100.00
2023-03-26T07:52:01.461Z,100.00
2023-03-26T07:54:57.227Z,100.00
2023-03-26T07:58:08.312Z,100.00
2023-03-26T08:01:04.501Z,100.00
2023-03-26T08:04:24.041Z,100.00
2023-03-26T08:07:15.584Z,100.00
2023-03-26T08:10:16.225Z,100.00
2023-03-26T08:13:21.608Z,100.00
2023-03-26T08:16:08.869Z,100.00
2023-03-26T08:19:06.154Z,100.00
2023-03-26T08:21:43.587Z,100.00
2023-03-26T08:24:27.507Z,100.00
2023-03-26T08:27:13.683Z,100.00
2023-03-26T08:30:14.917Z,100.00
2023-03-26T08:32:42.660Z,100.00
2023-03-26T08:35:13.509Z,100.00
2023-03-26T08:37:40.824Z,100.00
2023-03-26T08:40:09.607Z,100.00
2023-03-26T08:43:24.568Z,100.00
2023-03-26T08:46:12.868Z,100.00
2023-03-26T08:49:03.786Z,100.00
2023-03-26T08:52:03.849Z,100.00
2023-03-26T08:55:08.506Z,100.00
2023-03-26T08:57:56.028Z,100.00
2023-03-26T09:00:48.002Z,100.00
2023-03-26T09:03:39.389Z,100.00
2023-03-26T09:06:34.114Z,100.00
2023-03-26T09:09:18.807Z,100.00
2023-03-26T09:12:17.906Z,100.00
2023-03-26T09:15:27.221Z,100.00
2023-03-26T09:17:59.660Z,100.00
2023-03-26T09:21:09.444Z,100.00
2023-03-26T09:24:27.665Z,100.00
2023-03-26T09:27:14.515Z,100.00
2023-03-26T09:29:53.695Z,100.00
2023-03-26T09:32:36.291Z,100.00
2023-03-26T09:35:14.241Z,100.00
2023-03-26T09:38:03.353Z,100.00
2023-03-26T09:41:01.442Z,100.00
2023-03-26T09:44:02.911Z,100.00
2023-03-26T09:46:58.277Z,100.00
2023-03-26T09:49:36.394Z,100.00
2023-03-26T09:52:25.469Z,100.00
2023-03-26T09:55:24.252Z,100.00
2023-03-26T09:58:04.068Z,100.00
2023-03-26T10:00:47.078Z,100.00
2023-03-26T10:03:26.742Z,100.00
2023-03-26T10:06:12.893Z,100.00
2023-03-26T10:09:22.308Z,100.00
2023-03-26T10:12:08.536Z,100.00
2023-03-26T10:14:56.786Z,100.00
2023-03-26T10:18:01.743Z,100.00
2023-03-26T10:20:59.244Z,100.00
2023-03-26T10:23:45.357Z,100.00
2023-03-26T10:26:34.107Z,100.00
2023-03-26T10:29:31.909Z,100.00
2023-03-26T10:32:11.408Z,100.00
2023-03-26T10:34:38.733Z,100.00
2023-03-26T10:37:51.651Z,100.00
2023-03-26T10:41:01.525Z,100.00
2023-03-26T10:44:07.395Z,100.00
2023-03-26T10:47:12.648Z,100.00
2023-03-26T10:49:48.973Z,100.00
2023-03-26T10:52:23.746Z,100.00
2023-03-26T10:55:12.046Z,100.00
2023-03-26T10:58:00.465Z,100.00
2023-03-26T11:00:29.157Z,100.00
2023-03-26T11:03:30.692Z,100.00
2023-03-26T11:06:31.932Z,100.00
2023-03-26T11:09:28.221Z,100.00
2023-03-26T11:12:32.106Z,100.00
2023-03-26T11:15:25.936Z,100.00
2023-03-26T11:18:34.534Z,100.00
2023-03-26T11:21:27.993Z,100.00
2023-03-26T11:24:04.895Z,100.00
2023-03-26T11:27:15.899Z,100.00
2023-03-26T11:30:38.111Z,100.00
2023-03-26T11:33:18.419Z,100.00
2023-03-26T11:35:55.661Z,94.23
2023-03-26T11:38:54.038Z,67.83
2023-03-26T11:41:31.121Z,66.02
2023-03-26T11:44:19.520Z,71.57
2023-03-26T11:46:49.662Z,63.68
2023-03-26T11:49:20.745Z,71.87
2023-03-26T11:51:49.030Z,71.60
2023-03-26T11:54:17.880Z,72.73
2023-03-26T11:57:05.245Z,97.13
2023-03-26T11:59:58.248Z,73.34
2023-03-26T12:02:39.934Z,75.70
2023-03-26T12:05:33.502Z,74.70
2023-03-26T12:08:03.815Z,78.94
2023-03-26T12:10:37.637Z,97.14
2023-03-26T12:13:36.494Z,100.00
2023-03-26T12:16:22.708Z,100.00
2023-03-26T12:19:19.039Z,100.00
2023-03-26T12:21:50.079Z,96.06
2023-03-26T12:24:31.790Z,99.81
2023-03-26T12:27:20.315Z,100.00
2023-03-26T12:30:09.356Z,100.00
2023-03-26T12:32:46.101Z,100.00
2023-03-26T12:35:30.160Z,100.00
2023-03-26T12:38:25.461Z,100.00
2023-03-26T12:43:40.266Z,100.00
2023-03-26T12:44:47.437Z,100.00
2023-03-26T12:48:01.350Z,100.00
2023-03-26T12:50:15.757Z,95.15
2023-03-26T12:52:55.621Z,74.78
2023-03-26T12:56:00.657Z,85.42
2023-03-26T12:59:01.080Z,63.17
2023-03-26T13:01:54.769Z,68.63
2023-03-26T13:04:58.463Z,63.91
2023-03-26T13:08:07.568Z,95.82
2023-03-26T13:10:56.279Z,81.74
2023-03-26T13:14:07.704Z,56.63
2023-03-26T13:17:05.019Z,60.06
2023-03-26T13:19:53.246Z,59.90
2023-03-26T13:22:52.984Z,57.05
2023-03-26T13:25:51.823Z,50.29
2023-03-26T13:28:48.964Z,65.84
2023-03-26T13:31:45.975Z,72.39
2023-03-26T13:34:46.700Z,76.28
2023-03-26T13:37:37.432Z,59.14
2023-03-26T13:40:13.748Z,54.30
2023-03-26T13:43:12.076Z,53.52
2023-03-26T13:46:19.860Z,62.55
2023-03-26T13:48:58.527Z,71.61
2023-03-26T13:51:37.568Z,57.88
2023-03-26T13:54:30.596Z,65.56
2023-03-26T13:57:33.186Z,73.56
2023-03-26T14:00:13.148Z,79.64
2023-03-26T14:02:42.596Z,62.93
2023-03-26T14:05:31.455Z,63.55
2023-03-26T14:07:59.071Z,72.87
2023-03-26T14:10:41.250Z,71.83
2023-03-26T14:13:29.734Z,81.38
2023-03-26T14:16:06.449Z,94.05
2023-03-26T14:18:49.473Z,99.63
2023-03-26T14:21:49.486Z,100.00
2023-03-26T14:24:46.641Z,83.12
2023-03-26T14:27:50.985Z,95.94
2023-03-26T14:30:24.315Z,100.00
2023-03-26T14:33:34.240Z,99.98
2023-03-26T14:36:25.902Z,100.00
2023-03-26T14:39:18.888Z,100.00
2023-03-26T14:41:54.016Z,100.00
2023-03-26T14:44:47.829Z,89.90
2023-03-26T14:47:24.380Z,95.92
2023-03-26T14:49:55.333Z,100.00
2023-03-26T14:52:50.878Z,100.00
2023-03-26T14:55:48.752Z,100.00
2023-03-26T14:58:31.212Z,87.81
2023-03-26T15:01:25.892Z,96.29
2023-03-26T15:04:11.824Z,100.00
2023-03-26T15:06:58.373Z,100.00
2023-03-26T15:09:32.236Z,100.00
2023-03-26T15:12:52.401Z,100.00
2023-03-26T15:15:54.338Z,100.00
2023-03-26T15:18:50.638Z,51.07
2023-03-26T15:21:36.827Z,50.04
2023-03-26T15:24:07.190Z,46.04
2023-03-26T15:27:01.064Z,46.21
2023-03-26T15:29:29.982Z,45.60
2023-03-26T15:32:34.867Z,42.92
2023-03-26T15:35:02.674Z,46.54
2023-03-26T15:38:09.303Z,44.63
2023-03-26T15:40:44.714Z,42.87
2023-03-26T15:43:18.267Z,40.70
2023-03-26T15:45:47.968Z,40.63
2023-03-26T15:48:37.425Z,40.30
2023-03-26T15:51:46.665Z,40.02
2023-03-26T15:54:45.979Z,42.52
2023-03-26T15:57:33.065Z,42.29
2023-03-26T16:00:23.192Z,43.67
2023-03-26T16:02:53.708Z,41.40
2023-03-26T16:05:25.343Z,44.43
2023-03-26T16:08:05.084Z,43.49
2023-03-26T16:10:58.833Z,41.01
2023-03-26T16:13:33.981Z,39.45
2023-03-26T16:16:04.458Z,38.02
2023-03-26T16:18:50.948Z,45.51
2023-03-26T16:21:38.858Z,40.38
2023-03-26T16:24:06.151Z,40.28
2023-03-26T16:26:51.494Z,40.96
2023-03-26T16:29:22.341Z,41.52
2023-03-26T16:32:14.184Z,40.71
2023-03-26T16:35:08.660Z,38.25
2023-03-26T16:37:37.778Z,38.86
2023-03-26T16:40:23.532Z,38.08
2023-03-26T16:43:09.052Z,37.43
2023-03-26T16:46:04.359Z,38.16
2023-03-26T16:49:08.279Z,36.80
2023-03-26T16:51:59.782Z,37.06
2023-03-26T16:54:39.780Z,38.87
2023-03-26T16:57:38.528Z,37.10
2023-03-26T17:00:27.581Z,39.67
2023-03-26T17:03:15.356Z,40.99
2023-03-26T17:05:57.774Z,40.90
2023-03-26T17:08:36.435Z,39.21
2023-03-26T17:11:36.172Z,40.33
2023-03-26T17:14:28.564Z,39.92
2023-03-26T17:17:17.062Z,36.11
2023-03-26T17:20:11.720Z,38.79
2023-03-26T17:22:41.048Z,42.22
2023-03-26T17:25:37.791Z,40.62
2023-03-26T17:28:42.422Z,39.61
2023-03-26T17:31:26.380Z,43.04
2023-03-26T17:33:56.564Z,41.23
2023-03-26T17:36:31.738Z,42.10
2023-03-26T17:39:38.605Z,39.79
2023-03-26T17:42:37.506Z,41.53
2023-03-26T17:45:22.090Z,40.36
2023-03-26T17:47:54.223Z,39.09
2023-03-26T17:50:34.907Z,38.50
2023-03-26T17:53:23.207Z,39.67
2023-03-26T17:55:51.665Z,41.53
2023-03-26T17:58:34.079Z,39.81
2023-03-26T18:01:02.071Z,38.30
2023-03-26T18:03:34.151Z,41.44
2023-03-26T18:06:07.619Z,40.98
2023-03-26T18:08:47.156Z,39.40
2023-03-26T18:11:30.008Z,39.63
2023-03-26T18:14:32.177Z,39.51
2023-03-26T18:17:01.222Z,39.27
2023-03-26T18:19:29.421Z,38.29
2023-03-26T18:22:04.403Z,37.60
2023-03-26T18:24:39.139Z,37.73
2023-03-26T18:27:15.621Z,39.88
2023-03-26T18:29:56.462Z,39.35
2023-03-26T18:32:33.415Z,40.01
2023-03-26T18:35:13.525Z,39.79
2023-03-26T18:37:44.700Z,41.93
2023-03-26T18:40:16.713Z,42.09
2023-03-26T18:42:45.572Z,41.77
2023-03-26T18:45:24.912Z,42.03
2023-03-26T18:48:07.152Z,39.01
2023-03-26T18:50:40.778Z,39.34
2023-03-26T18:53:16.789Z,39.65
2023-03-26T18:55:44.523Z,38.88
2023-03-26T18:58:30.058Z,37.96
2023-03-26T19:01:01.663Z,37.81
2023-03-26T19:03:35.635Z,37.46
2023-03-26T19:06:08.213Z,37.56
2023-03-26T19:08:38.865Z,37.74
2023-03-26T19:11:10.714Z,38.16
2023-03-26T19:13:42.491Z,38.18
2023-03-26T19:16:25.840Z,38.72
2023-03-26T19:18:53.379Z,39.69
2023-03-26T19:21:23.221Z,39.33
2023-03-26T19:23:51.913Z,39.56
2023-03-26T19:26:19.377Z,38.33
2023-03-26T19:28:53.219Z,39.16
2023-03-26T19:31:24.317Z,41.88
2023-03-26T19:34:18.082Z,40.25
2023-03-26T19:37:01.418Z,39.16
2023-03-26T19:39:46.356Z,41.01
2023-03-26T19:42:20.695Z,41.72
2023-03-26T19:44:49.348Z,43.18
2023-03-26T19:47:39.126Z,41.96
2023-03-26T19:50:29.787Z,43.62
2023-03-26T19:53:25.332Z,42.41
2023-03-26T19:56:13.448Z,39.90
2023-03-26T19:58:41.667Z,42.87
2023-03-26T20:01:29.597Z,44.24
2023-03-26T20:04:00.316Z,47.17
2023-03-26T20:06:43.261Z,42.77
2023-03-26T20:09:12.336Z,44.07
2023-03-26T20:11:40.711Z,42.00
2023-03-26T20:14:17.284Z,41.08
2023-03-26T20:16:45.805Z,40.59
2023-03-26T20:19:15.089Z,42.09
2023-03-26T20:21:44.204Z,39.62
2023-03-26T20:24:14.767Z,41.13
2023-03-26T20:26:42.570Z,41.98
2023-03-26T20:29:10.245Z,42.72
2023-03-26T20:31:38.296Z,44.09
2023-03-26T20:34:20.371Z,44.25
2023-03-26T20:36:53.952Z,43.30
2023-03-26T20:39:23.239Z,42.78
2023-03-26T20:41:51.292Z,41.65
2023-03-26T20:44:20.974Z,42.58
2023-03-26T20:46:49.707Z,42.64
2023-03-26T20:49:18.037Z,44.33
2023-03-26T20:51:46.505Z,41.46
2023-03-26T20:54:23.151Z,44.46
2023-03-26T20:56:52.329Z,44.56
2023-03-26T20:59:26.384Z,44.98
2023-03-26T21:01:56.636Z,44.32
2023-03-26T21:04:24.849Z,43.68
2023-03-26T21:06:57.650Z,45.28
2023-03-26T21:09:34.921Z,44.11
2023-03-26T21:12:18.885Z,45.83
2023-03-26T21:14:46.669Z,43.64
2023-03-26T21:17:20.000Z,45.70
2023-03-26T21:19:47.983Z,45.97
2023-03-26T21:22:30.731Z,46.17
2023-03-26T21:25:17.106Z,49.59
2023-03-26T21:28:06.093Z,48.52
2023-03-26T21:30:34.526Z,47.32
2023-03-26T21:33:02.251Z,47.23
2023-03-26T21:35:30.208Z,46.48
2023-03-26T21:37:57.941Z,45.99
2023-03-26T21:40:25.837Z,47.48
2023-03-26T21:42:54.694Z,51.17
2023-03-26T21:45:23.232Z,52.04
2023-03-26T21:47:50.966Z,54.34
2023-03-26T21:50:22.140Z,59.25
2023-03-26T21:52:51.370Z,73.56
2023-03-26T21:55:24.267Z,86.78
2023-03-26T21:58:36.183Z,88.14
2023-03-26T22:01:15.684Z,100.00
2023-03-26T22:04:13.597Z,100.00
2023-03-26T22:07:14.082Z,100.00
2023-03-26T22:09:43.647Z,100.00
2023-03-26T22:12:11.344Z,100.00
2023-03-26T22:14:38.876Z,100.00
2023-03-26T22:17:06.277Z,100.00
2023-03-26T22:19:34.638Z,100.00
2023-03-26T22:22:02.989Z,100.00
2023-03-26T22:24:30.281Z,100.00
2023-03-26T22:26:57.624Z,100.00
2023-03-26T22:29:24.957Z,100.00
2023-03-26T22:31:52.367Z,100.00
2023-03-26T22:34:19.884Z,100.00
2023-03-26T22:36:47.245Z,100.00
2023-03-26T22:39:14.616Z,100.00
2023-03-26T22:41:41.996Z,100.00
2023-03-26T22:44:19.902Z,100.00
2023-03-26T22:46:49.387Z,100.00
2023-03-26T22:49:17.702Z,100.00
2023-03-26T22:51:45.116Z,100.00
2023-03-26T22:54:12.382Z,100.00
2023-03-26T22:56:39.757Z,100.00
2023-03-26T22:59:07.226Z,100.00
2023-03-26T23:01:34.822Z,100.00
2023-03-26T23:04:02.380Z,100.00
2023-03-26T23:06:29.877Z,100.00
2023-03-26T23:08:57.208Z,100.00
2023-03-26T23:11:24.690Z,100.00
2023-03-26T23:13:52.020Z,100.00
2023-03-26T23:16:21.436Z,100.00
2023-03-26T23:18:49.080Z,100.00
2023-03-26T23:21:21.694Z,100.00
2023-03-26T23:23:52.101Z,100.00
2023-03-26T23:26:19.691Z,100.00
2023-03-26T23:28:47.797Z,100.00
2023-03-26T23:31:15.083Z,100.00
2023-03-26T23:33:50.290Z,100.00
2023-03-26T23:36:20.023Z,100.00
2023-03-26T23:38:48.838Z,100.00
2023-03-26T23:41:21.937Z,100.00
2023-03-26T23:43:56.461Z,100.00
2023-03-26T23:46:30.313Z,100.00
2023-03-26T23:49:00.006Z,100.00
2023-03-26T23:51:27.613Z,100.00
2023-03-26T23:53:55.060Z,100.00
2023-03-26T23:56:22.476Z,100.00
2023-03-26T23:58:50.194Z,100.00
